Time;durP1;ratioP1;P1;durP2;ratioP2;P2;SDS_P1;SDS_P2;PMS_P1;PMS_P2;Temp;Humidity;BMP_temperature;BMP_pressure;BME280_temperature;BME280_humidity;BME280_pressure;Samples;Min_cycle;Max_cycle;Signal;HPM_P1;HPM_P2
2023/03/05 00:01:52;;;;;;;25.10;13.93;;;;;;;3.34;85.99;98466.31;5052683;28;20585;-79
2023/03/05 00:04:19;;;;;;;25.93;14.20;;;;;;;3.28;86.44;98467.38;5052702;28;20243;-79
2023/03/05 00:06:46;;;;;;;25.60;13.43;;;;;;;3.29;86.57;98469.09;5052558;28;20210;-79
2023/03/05 00:09:14;;;;;;;28.27;14.80;;;;;;;3.25;86.40;98470.09;5052881;28;20206;-79
2023/03/05 00:11:40;;;;;;;25.80;14.60;;;;;;;3.27;86.44;98473.53;5052841;28;20576;-79
2023/03/05 00:14:07;;;;;;;27.17;14.60;;;;;;;3.29;86.56;98469.09;5052595;28;20238;-79
2023/03/05 00:16:33;;;;;;;28.90;15.03;;;;;;;3.30;86.42;98468.16;5052157;28;20217;-79
2023/03/05 00:19:00;;;;;;;27.97;15.23;;;;;;;3.35;86.15;98471.47;5052791;28;20213;-80
2023/03/05 00:21:29;;;;;;;31.77;14.43;;;;;;;3.34;86.08;98467.16;5052653;28;20216;-79
2023/03/05 00:23:59;;;;;;;27.37;13.77;;;;;;;3.35;86.18;98466.25;5051621;28;20579;-79
2023/03/05 00:26:26;;;;;;;28.37;13.90;;;;;;;3.40;85.38;98463.47;5052303;28;20271;-79
2023/03/05 00:28:54;;;;;;;22.03;12.60;;;;;;;3.41;86.08;98463.44;5052433;28;20223;-79
2023/03/05 00:31:23;;;;;;;23.80;12.93;;;;;;;3.42;86.56;98461.69;5052305;28;20656;-79
2023/03/05 00:33:53;;;;;;;26.33;13.20;;;;;;;3.42;85.90;98449.44;5052500;28;20663;-80
2023/03/05 00:36:20;;;;;;;25.17;13.73;;;;;;;3.45;86.24;98454.59;5052101;28;20204;-79
2023/03/05 00:38:47;;;;;;;27.23;13.90;;;;;;;3.38;86.45;98447.88;5052256;28;20682;-79
2023/03/05 00:41:15;;;;;;;25.83;13.10;;;;;;;3.39;86.67;98465.25;5052266;28;20229;-79
2023/03/05 00:43:41;;;;;;;25.20;12.77;;;;;;;3.43;87.15;98455.53;5068728;22;20244;-83
2023/03/05 00:46:08;;;;;;;26.87;12.93;;;;;;;3.48;87.08;98451.00;5071174;28;20248;-83
2023/03/05 00:48:34;;;;;;;23.80;13.03;;;;;;;3.48;87.65;98454.47;5072346;28;20213;-83
2023/03/05 00:51:01;;;;;;;24.33;12.43;;;;;;;3.46;87.60;98451.06;5072384;28;20202;-83
2023/03/05 00:53:27;;;;;;;26.80;13.13;;;;;;;3.48;87.95;98451.00;5072319;28;20705;-83
2023/03/05 00:55:54;;;;;;;27.00;13.60;;;;;;;3.52;87.43;98447.34;5052319;28;20213;-83
2023/03/05 00:58:22;;;;;;;26.17;12.40;;;;;;;3.48;87.92;98438.78;5051904;28;20676;-82
2023/03/05 01:00:49;;;;;;;23.40;12.73;;;;;;;3.47;88.56;98444.91;5052279;28;20238;-83
2023/03/05 01:03:16;;;;;;;24.30;14.13;;;;;;;3.49;88.72;98442.25;5052152;28;20222;-83
2023/03/05 01:05:42;;;;;;;23.93;13.20;;;;;;;3.46;89.00;98444.97;5052116;28;20231;-83
2023/03/05 01:08:10;;;;;;;22.70;12.73;;;;;;;3.44;89.28;98444.19;5051953;28;20218;-83
2023/03/05 01:10:36;;;;;;;24.30;12.90;;;;;;;3.43;89.70;98438.09;5052131;28;20235;-83
2023/03/05 01:13:03;;;;;;;27.17;14.77;;;;;;;3.38;89.81;98434.81;5052042;28;20205;-83
2023/03/05 01:15:31;;;;;;;30.30;13.87;;;;;;;3.44;90.27;98431.97;5051798;28;20242;-82
2023/03/05 01:17:57;;;;;;;25.10;14.13;;;;;;;3.43;89.59;98435.47;5051615;28;20234;-83
2023/03/05 01:20:24;;;;;;;26.73;13.63;;;;;;;3.41;89.91;98429.47;5051680;28;20697;-83
2023/03/05 01:22:50;;;;;;;25.00;13.30;;;;;;;3.45;89.94;98425.84;5051715;28;20211;-83
2023/03/05 01:25:18;;;;;;;23.83;13.40;;;;;;;3.47;89.57;98423.16;5051579;28;20258;-82
2023/03/05 01:27:44;;;;;;;25.10;13.60;;;;;;;3.48;89.42;98425.72;5051553;28;20214;-83
2023/03/05 01:30:13;;;;;;;24.83;13.00;;;;;;;3.47;88.55;98413.56;5051424;28;20674;-83
2023/03/05 01:32:41;;;;;;;26.43;13.50;;;;;;;3.48;88.51;98410.03;5051567;28;20221;-83
2023/03/05 01:35:09;;;;;;;27.47;12.87;;;;;;;3.49;89.04;98408.28;5051401;28;20250;-83
2023/03/05 01:37:35;;;;;;;22.23;12.53;;;;;;;3.48;89.31;98410.03;5051300;28;20209;-83
2023/03/05 01:40:02;;;;;;;24.67;12.20;;;;;;;3.49;88.89;98409.13;5051147;28;20236;-83
2023/03/05 01:42:28;;;;;;;23.37;12.20;;;;;;;3.48;89.12;98410.03;5051534;28;20583;-83
2023/03/05 01:45:05;;;;;;;25.73;12.53;;;;;;;3.49;88.79;98403.91;5051031;28;20245;-83
2023/03/05 01:47:32;;;;;;;22.83;12.33;;;;;;;3.49;88.79;98395.22;5051267;28;20206;-83
2023/03/05 01:50:00;;;;;;;23.53;11.97;;;;;;;3.55;88.88;98392.38;5051464;28;20211;-83
2023/03/05 01:52:29;;;;;;;23.50;12.00;;;;;;;3.54;89.04;98388.91;5051332;28;20215;-83
2023/03/05 01:54:59;;;;;;;26.90;11.43;;;;;;;3.51;89.60;98393.41;5051419;28;20601;-82
2023/03/05 01:57:31;;;;;;;23.77;11.53;;;;;;;3.53;89.55;98392.44;5050797;28;20218;-83
2023/03/05 02:00:02;;;;;;;23.03;11.60;;;;;;;3.54;89.99;98388.91;5050920;28;20689;-83
2023/03/05 02:02:29;;;;;;;20.33;10.97;;;;;;;3.51;90.59;98389.03;5051134;28;20229;-83
2023/03/05 02:05:02;;;;;;;23.87;11.23;;;;;;;3.49;90.70;98395.22;5050884;28;20684;-83
2023/03/05 02:07:30;;;;;;;21.23;10.77;;;;;;;3.51;91.38;98378.59;5051093;28;20296;-83
2023/03/05 02:09:56;;;;;;;24.77;11.73;;;;;;;3.47;90.96;98379.59;5051152;28;20751;-83
2023/03/05 02:12:23;;;;;;;22.63;11.87;;;;;;;3.46;91.72;98380.50;5051160;28;20394;-83
2023/03/05 02:14:57;;;;;;;23.03;11.30;;;;;;;3.46;91.37;98371.81;5051501;28;20633;-83
2023/03/05 02:17:27;;;;;;;21.10;11.70;;;;;;;3.41;91.67;98377.22;5074712;28;20270;-83
2023/03/05 02:19:56;;;;;;;23.40;12.00;;;;;;;3.37;92.90;98370.38;5075406;28;20233;-83
2023/03/05 02:22:24;;;;;;;22.27;10.57;;;;;;;3.38;92.95;98372.13;5064774;28;20198;-82
2023/03/05 02:24:51;;;;;;;21.87;10.63;;;;;;;3.39;93.63;98372.94;5076725;28;20219;-83
2023/03/05 02:27:23;;;;;;;25.27;12.07;;;;;;;3.45;94.78;98373.59;5076456;28;20239;-82
2023/03/05 02:29:50;;;;;;;24.23;11.57;;;;;;;3.40;95.47;98377.25;5074307;28;20199;-82
2023/03/05 02:32:17;;;;;;;22.67;11.27;;;;;;;3.41;96.03;98372.00;5075551;28;20194;-82
2023/03/05 02:34:43;;;;;;;24.63;12.00;;;;;;;3.45;96.09;98367.50;5075499;28;20223;-82
2023/03/05 02:37:10;;;;;;;26.00;12.47;;;;;;;3.48;96.24;98363.00;5073980;28;20211;-82
2023/03/05 02:39:38;;;;;;;24.63;11.73;;;;;;;3.50;96.00;98363.81;5072525;28;20270;-82
2023/03/05 02:42:05;;;;;;;21.60;12.07;;;;;;;3.43;95.50;98354.50;5066395;28;20223;-81
2023/03/05 02:44:32;;;;;;;20.27;10.47;;;;;;;3.41;95.22;98361.53;5063902;28;20244;-82
2023/03/05 02:46:58;;;;;;;22.17;11.33;;;;;;;3.43;95.21;98358.88;5073877;28;20215;-82
2023/03/05 02:49:25;;;;;;;19.40;10.80;;;;;;;3.40;95.50;98348.53;5060402;28;20214;-83
2023/03/05 02:51:51;;;;;;;24.40;11.73;;;;;;;3.49;94.54;98343.81;5058692;28;20611;-83
2023/03/05 02:54:17;;;;;;;23.27;12.03;;;;;;;3.49;94.81;98343.81;5058709;28;20231;-83
2023/03/05 02:56:45;;;;;;;22.63;12.20;;;;;;;3.46;94.56;98341.31;5057466;28;20217;-83
2023/03/05 02:59:12;;;;;;;25.83;12.63;;;;;;;3.45;95.18;98342.25;5057291;28;20211;-82
2023/03/05 03:01:38;;;;;;;25.80;12.87;;;;;;;3.44;94.85;98335.31;5056952;28;20230;-83
2023/03/05 03:04:05;;;;;;;29.83;14.37;;;;;;;3.39;95.55;98337.25;5054166;28;20233;-83
2023/03/05 03:06:33;;;;;;;24.63;13.30;;;;;;;3.41;95.11;98324.97;5054094;28;20214;-83
2023/03/05 03:08:59;;;;;;;32.53;15.33;;;;;;;3.42;94.88;98331.88;5054177;28;20210;-83
2023/03/05 03:11:26;;;;;;;25.80;14.60;;;;;;;3.42;94.20;98324.06;5054223;28;20320;-82
2023/03/05 03:13:54;;;;;;;26.83;13.53;;;;;;;3.49;94.01;98316.84;5053885;28;20235;-82
2023/03/05 03:16:20;;;;;;;25.30;11.97;;;;;;;3.51;94.02;98323.72;5054160;28;20217;-83
2023/03/05 03:18:47;;;;;;;21.10;10.60;;;;;;;3.52;94.27;98314.97;5054203;28;20208;-82
2023/03/05 03:21:18;;;;;;;20.97;10.17;;;;;;;3.50;94.45;98323.75;5054125;28;20655;-83
2023/03/05 03:23:44;;;;;;;20.30;9.87;;;;;;;3.48;95.31;98315.97;5053830;28;20326;-82
2023/03/05 03:26:11;;;;;;;19.10;8.87;;;;;;;3.58;95.02;98322.56;5053509;28;20222;-83
2023/03/05 03:28:37;;;;;;;19.90;9.67;;;;;;;3.58;95.06;98316.47;5053916;28;20214;-83
2023/03/05 03:31:05;;;;;;;22.70;10.00;;;;;;;3.61;94.95;98314.59;5053663;28;20654;-82
2023/03/05 03:33:32;;;;;;;17.97;9.13;;;;;;;3.58;95.24;98312.13;5053560;28;20213;-83
2023/03/05 03:35:59;;;;;;;21.20;9.43;;;;;;;3.55;95.96;98307.00;5053731;28;20205;-82
2023/03/05 03:38:25;;;;;;;17.13;8.73;;;;;;;3.57;96.36;98305.19;5053417;28;20206;-83
2023/03/05 03:40:52;;;;;;;17.10;8.97;;;;;;;3.58;96.34;98303.41;5053581;28;20232;-83
2023/03/05 03:43:18;;;;;;;21.97;9.93;;;;;;;3.57;96.80;98305.19;5053696;28;20209;-83
2023/03/05 03:45:45;;;;;;;20.67;9.47;;;;;;;3.58;96.58;98299.06;5053289;28;20635;-82
2023/03/05 03:48:13;;;;;;;18.10;8.57;;;;;;;3.60;97.06;98294.59;5053161;28;20212;-83
2023/03/05 03:50:40;;;;;;;19.57;9.10;;;;;;;3.65;97.18;98297.91;5053418;28;20208;-83
2023/03/05 03:53:07;;;;;;;21.10;9.10;;;;;;;3.61;97.41;98295.47;5053380;28;20210;-83
2023/03/05 03:55:34;;;;;;;18.27;8.67;;;;;;;3.60;97.53;98289.38;5053297;28;20235;-82
2023/03/05 03:58:02;;;;;;;17.00;9.07;;;;;;;3.61;97.81;98296.31;5053068;28;20228;-82
2023/03/05 04:00:28;;;;;;;18.23;8.23;;;;;;;3.62;97.75;98291.94;5053331;28;20322;-82
2023/03/05 04:02:55;;;;;;;16.00;8.97;;;;;;;3.61;97.74;98285.00;5053256;28;20231;-83
2023/03/05 04:05:22;;;;;;;17.50;8.90;;;;;;;3.60;97.64;98278.94;5053047;28;20244;-83
2023/03/05 04:07:50;;;;;;;19.93;9.07;;;;;;;3.60;97.85;98286.75;5052602;28;20208;-83
2023/03/05 04:10:17;;;;;;;20.57;9.50;;;;;;;3.58;98.38;98283.38;5052997;28;20728;-82
2023/03/05 04:12:45;;;;;;;21.13;8.93;;;;;;;3.57;98.55;98284.28;5053105;28;20203;-83
2023/03/05 04:15:12;;;;;;;17.63;8.37;;;;;;;3.54;98.93;98281.78;5052458;28;20235;-82
2023/03/05 04:17:38;;;;;;;20.40;9.30;;;;;;;3.58;98.57;98279.88;5052625;28;20214;-83
2023/03/05 04:20:07;;;;;;;17.20;8.83;;;;;;;3.57;98.61;98278.19;5052742;28;20579;-83
2023/03/05 04:22:35;;;;;;;16.07;8.53;;;;;;;3.57;98.70;98272.97;5052901;28;20250;-83
2023/03/05 04:25:05;;;;;;;18.77;8.20;;;;;;;3.57;99.01;98281.69;5052948;28;20613;-83
2023/03/05 04:27:32;;;;;;;18.03;8.23;;;;;;;3.54;98.27;98262.66;5052760;28;20565;-83
2023/03/05 04:29:58;;;;;;;21.40;8.93;;;;;;;3.54;98.44;98276.56;5052903;28;20685;-83
2023/03/05 04:32:27;;;;;;;19.87;8.40;;;;;;;3.58;98.52;98267.69;5053019;28;20208;-83
2023/03/05 04:34:53;;;;;;;18.10;8.53;;;;;;;3.57;98.11;98260.78;5052505;28;20600;-83
2023/03/05 04:37:20;;;;;;;17.73;8.77;;;;;;;3.60;97.64;98263.25;5052358;28;20215;-83
2023/03/05 04:39:48;;;;;;;18.13;8.47;;;;;;;3.54;97.47;98258.25;5052442;28;20689;-83
2023/03/05 04:42:15;;;;;;;19.17;8.17;;;;;;;3.48;97.55;98262.91;5052529;28;20242;-82
2023/03/05 04:44:41;;;;;;;18.07;8.83;;;;;;;3.46;97.51;98264.69;5052210;28;20238;-83
2023/03/05 04:47:08;;;;;;;18.70;8.70;;;;;;;3.42;97.77;98263.97;5052037;28;20210;-83
2023/03/05 04:49:34;;;;;;;19.10;9.10;;;;;;;3.37;97.79;98255.44;5052794;28;20207;-83
2023/03/05 04:52:00;;;;;;;21.20;9.00;;;;;;;3.40;97.95;98259.72;5052403;28;20219;-83
2023/03/05 04:54:27;;;;;;;21.00;9.97;;;;;;;3.39;97.71;98253.66;5051985;28;20733;-83
2023/03/05 04:56:55;;;;;;;20.83;8.90;;;;;;;3.40;97.52;98257.09;5051881;28;20215;-82
2023/03/05 04:59:22;;;;;;;20.73;8.93;;;;;;;3.35;97.56;98256.41;5052048;28;20210;-83
2023/03/05 05:01:48;;;;;;;19.43;9.17;;;;;;;3.35;97.57;98252.06;5051942;28;20231;-82
2023/03/05 05:04:15;;;;;;;21.00;9.37;;;;;;;3.33;97.88;98253.03;5051929;28;20228;-83
2023/03/05 05:06:41;;;;;;;20.47;9.20;;;;;;;3.31;97.85;98253.06;5051878;28;20215;-82
2023/03/05 05:09:08;;;;;;;18.53;9.67;;;;;;;3.27;97.69;98251.50;5051471;28;20281;-82
2023/03/05 05:11:34;;;;;;;17.57;8.67;;;;;;;3.27;98.21;98254.13;5051936;28;20200;-82
2023/03/05 05:14:03;;;;;;;18.60;9.03;;;;;;;3.27;97.80;98254.13;5051546;28;20246;-82
2023/03/05 05:16:29;;;;;;;18.73;9.33;;;;;;;3.27;97.61;98243.69;5051371;28;20678;-82
2023/03/05 05:18:56;;;;;;;19.77;8.97;;;;;;;3.29;97.81;98243.59;5051968;28;20213;-82
2023/03/05 05:21:22;;;;;;;18.10;8.67;;;;;;;3.26;97.13;98241.13;5051636;28;20227;-82
2023/03/05 05:23:49;;;;;;;18.57;9.80;;;;;;;3.26;98.12;98247.19;5051763;28;20250;-82
2023/03/05 05:26:15;;;;;;;17.37;8.73;;;;;;;3.27;98.29;98242.81;5051295;28;20217;-81
2023/03/05 05:28:43;;;;;;;17.27;8.80;;;;;;;3.26;97.59;98241.13;5051542;28;20231;-82
2023/03/05 05:31:13;;;;;;;19.47;8.77;;;;;;;3.35;96.52;98241.59;5051506;28;20213;-82
2023/03/05 05:33:40;;;;;;;20.00;9.83;;;;;;;3.28;96.43;98240.16;5051607;28;20212;-82
2023/03/05 05:36:08;;;;;;;18.80;9.63;;;;;;;3.25;96.79;98248.09;5051394;28;20218;-82
2023/03/05 05:38:35;;;;;;;22.50;9.23;;;;;;;3.26;96.67;98247.19;5051514;28;20209;-82
2023/03/05 05:41:04;;;;;;;20.20;9.50;;;;;;;3.23;97.12;98241.22;5051322;28;20239;-83
2023/03/05 05:43:30;;;;;;;21.07;10.53;;;;;;;3.26;96.69;98236.75;5051157;28;20215;-83
2023/03/05 05:45:59;;;;;;;21.40;10.53;;;;;;;3.23;96.68;98242.09;5051190;28;20225;-82
2023/03/05 05:48:28;;;;;;;20.77;9.67;;;;;;;3.26;96.64;98230.66;5051352;28;20204;-82
2023/03/05 05:50:54;;;;;;;19.93;9.63;;;;;;;3.21;96.87;98243.91;5051330;28;20214;-82
2023/03/05 05:53:21;;;;;;;19.53;9.00;;;;;;;3.21;97.54;98243.91;5051341;28;20317;-82
2023/03/05 05:55:47;;;;;;;21.90;10.20;;;;;;;3.21;97.19;98237.81;5051104;28;20233;-82
2023/03/05 05:58:14;;;;;;;20.87;10.27;;;;;;;3.19;97.50;98239.66;5050916;28;20242;-82
2023/03/05 06:00:40;;;;;;;21.43;9.87;;;;;;;3.22;97.74;98243.00;5051145;28;20675;-82
2023/03/05 06:03:07;;;;;;;22.17;10.47;;;;;;;3.26;97.43;98241.97;5051009;28;20211;-82
2023/03/05 06:05:35;;;;;;;22.37;9.90;;;;;;;3.24;97.30;98238.56;5050980;28;20226;-82
2023/03/05 06:08:01;;;;;;;22.67;10.23;;;;;;;3.25;97.60;98245.47;5050821;28;20211;-82
2023/03/05 06:10:28;;;;;;;19.70;9.33;;;;;;;3.23;96.92;98241.22;5050937;28;20217;-82
2023/03/05 06:12:55;;;;;;;22.37;10.40;;;;;;;3.25;96.70;98237.63;5050901;28;20213;-82
2023/03/05 06:15:21;;;;;;;22.77;10.40;;;;;;;3.21;96.62;98238.69;5050870;28;20618;-82
2023/03/05 06:17:48;;;;;;;19.87;9.97;;;;;;;3.24;96.67;98240.34;5050912;28;20216;-82
2023/03/05 06:20:14;;;;;;;19.07;9.40;;;;;;;3.22;96.95;98239.53;5051548;28;20219;-82
2023/03/05 06:22:42;;;;;;;22.43;10.20;;;;;;;3.27;96.57;98243.69;5055004;28;20230;-82
2023/03/05 06:25:10;;;;;;;22.53;10.00;;;;;;;3.29;96.70;98239.22;5054884;28;20737;-82
2023/03/05 06:27:37;;;;;;;18.70;9.20;;;;;;;3.29;96.44;98241.84;5054659;28;20208;-82
2023/03/05 06:30:05;;;;;;;18.20;9.73;;;;;;;3.31;95.72;98234.78;5055201;28;20211;-82
2023/03/05 06:32:32;;;;;;;20.80;9.27;;;;;;;3.31;95.51;98240.00;5054865;28;20207;-82
2023/03/05 06:34:58;;;;;;;17.10;9.37;;;;;;;3.31;95.23;98233.97;5054938;28;20234;-82
2023/03/05 06:37:24;;;;;;;19.07;8.60;;;;;;;3.28;95.49;98234.06;5054531;28;20607;-82
2023/03/05 06:39:52;;;;;;;19.23;9.73;;;;;;;3.31;95.53;98232.19;5054521;28;20232;-83
2023/03/05 06:42:19;;;;;;;21.73;9.77;;;;;;;3.25;95.93;98235.03;5055163;28;20576;-81
2023/03/05 06:44:46;;;;;;;20.33;9.80;;;;;;;3.30;95.31;98227.88;5063424;22;20232;-80
2023/03/05 06:47:13;;;;;;;19.87;9.70;;;;;;;3.29;95.43;98236.63;5033437;28;20223;-79
2023/03/05 06:49:40;;;;;;;23.33;10.40;;;;;;;3.30;95.93;98234.88;5034587;28;20266;-79
2023/03/05 06:52:08;;;;;;;25.67;10.73;;;;;;;3.27;95.53;98227.13;5034597;28;20206;-77
2023/03/05 06:54:35;;;;;;;20.30;9.93;;;;;;;3.34;95.63;98229.47;5034155;28;20231;-77
2023/03/05 06:57:03;;;;;;;19.60;10.17;;;;;;;3.35;95.43;98227.69;5033994;28;20215;-77
2023/03/05 06:59:30;;;;;;;21.57;9.77;;;;;;;3.36;95.52;98219.78;5034612;28;20212;-77
2023/03/05 07:01:56;;;;;;;20.60;9.80;;;;;;;3.38;95.02;98230.19;5034639;28;20229;-77
2023/03/05 07:04:23;;;;;;;18.20;9.50;;;;;;;3.37;94.70;98228.50;5034232;28;20232;-77
2023/03/05 07:06:50;;;;;;;24.87;9.97;;;;;;;3.42;94.66;98232.63;5034261;28;20213;-77
2023/03/05 07:09:16;;;;;;;18.70;9.87;;;;;;;3.44;94.44;98220.38;5034318;28;20219;-77
2023/03/05 07:11:43;;;;;;;23.97;10.43;;;;;;;3.49;94.06;98222.78;5034570;28;20222;-76
2023/03/05 07:14:11;;;;;;;19.43;9.67;;;;;;;3.48;93.93;98216.69;5034264;28;20598;-77
2023/03/05 07:16:37;;;;;;;23.47;10.90;;;;;;;3.50;94.06;98214.91;5034215;28;20222;-78
2023/03/05 07:19:06;;;;;;;22.93;10.70;;;;;;;3.48;94.27;98211.47;5033979;28;20208;-78
2023/03/05 07:21:34;;;;;;;25.40;10.50;;;;;;;3.48;94.58;98215.88;5033503;28;20374;-78
2023/03/05 07:24:02;;;;;;;23.27;10.83;;;;;;;3.55;94.02;98212.09;5032240;28;20234;-77
2023/03/05 07:26:29;;;;;;;21.40;10.87;;;;;;;3.50;93.26;98212.28;5031298;28;20212;-78
2023/03/05 07:28:56;;;;;;;22.57;10.07;;;;;;;3.57;92.56;98211.13;5033948;28;20563;-77
2023/03/05 07:31:25;;;;;;;21.00;9.70;;;;;;;3.56;92.74;98209.41;5033488;28;20219;-77
2023/03/05 07:33:53;;;;;;;19.17;9.83;;;;;;;3.54;92.91;98216.44;5030657;28;20581;-77
2023/03/05 07:36:20;;;;;;;18.83;9.53;;;;;;;3.60;92.86;98210.97;5032691;28;20208;-77
2023/03/05 07:38:46;;;;;;;20.63;9.57;;;;;;;3.61;92.54;98212.69;5033813;28;20211;-77
2023/03/05 07:41:18;;;;;;;23.33;10.90;;;;;;;3.62;92.46;98209.16;5031639;28;20219;-78
2023/03/05 07:43:45;;;;;;;22.30;10.00;;;;;;;3.67;92.15;98199.38;5032053;28;20670;-80
2023/03/05 07:46:14;;;;;;;20.90;9.97;;;;;;;3.73;91.17;98201.72;5033662;28;20243;-78
2023/03/05 07:48:42;;;;;;;21.33;10.80;;;;;;;3.80;91.04;98199.72;5032845;28;20220;-81
2023/03/05 07:51:13;;;;;;;21.67;10.67;;;;;;;3.82;90.49;98198.75;5031145;28;20219;-80
2023/03/05 07:53:40;;;;;;;19.67;9.43;;;;;;;3.81;90.36;98202.28;5033815;28;20274;-81
2023/03/05 07:56:07;;;;;;;22.83;9.77;;;;;;;3.76;90.94;98206.84;5033597;28;20741;-80
2023/03/05 07:58:33;;;;;;;22.13;10.27;;;;;;;3.81;90.17;98204.91;5031036;28;20216;-80
2023/03/05 08:01:00;;;;;;;22.30;10.10;;;;;;;3.78;90.07;98205.00;5032262;28;20212;-78
2023/03/05 08:03:26;;;;;;;23.07;10.17;;;;;;;3.78;90.23;98199.78;5033324;28;20248;-81
2023/03/05 08:05:54;;;;;;;22.40;10.90;;;;;;;3.79;90.11;98201.47;5032373;28;20609;-81
2023/03/05 08:08:21;;;;;;;20.70;9.90;;;;;;;3.85;90.36;98196.00;5031884;28;20219;-80
2023/03/05 08:10:47;;;;;;;23.43;10.23;;;;;;;3.86;89.83;98200.31;5033520;28;20233;-80
2023/03/05 08:13:14;;;;;;;19.97;10.13;;;;;;;3.86;90.19;98202.09;5033347;28;20208;-80
2023/03/05 08:15:40;;;;;;;17.90;9.23;;;;;;;3.84;89.56;98199.53;5030664;28;20242;-79
2023/03/05 08:18:07;;;;;;;18.73;10.07;;;;;;;3.86;89.09;98192.47;5032719;28;20213;-84
2023/03/05 08:20:35;;;;;;;23.43;10.70;;;;;;;3.90;89.74;98196.66;5032506;28;20295;-80
2023/03/05 08:23:03;;;;;;;22.10;10.63;;;;;;;3.88;89.41;98187.19;5031075;28;20267;-80
2023/03/05 08:25:30;;;;;;;24.50;10.10;;;;;;;3.93;88.72;98190.44;5030952;28;20249;-80
2023/03/05 08:27:56;;;;;;;21.50;9.30;;;;;;;3.94;89.63;98190.41;5034040;28;20210;-80
2023/03/05 08:30:25;;;;;;;23.83;9.80;;;;;;;3.98;88.85;98188.50;5032758;28;20259;-80
2023/03/05 08:32:53;;;;;;;19.60;9.43;;;;;;;4.03;89.43;98195.22;5029860;28;20609;-80
2023/03/05 08:35:20;;;;;;;22.37;10.33;;;;;;;4.00;89.37;98190.13;5032400;28;20232;-79
2023/03/05 08:37:46;;;;;;;17.67;8.77;;;;;;;4.13;88.06;98180.84;5032303;28;20220;-79
2023/03/05 08:40:16;;;;;;;25.10;10.13;;;;;;;4.11;87.96;98187.94;5030213;28;20229;-79
2023/03/05 08:42:43;;;;;;;20.57;8.97;;;;;;;4.04;88.03;98178.63;5030706;28;20238;-79
2023/03/05 08:45:11;;;;;;;20.57;9.73;;;;;;;4.05;88.24;98182.09;5031326;28;20245;-79
2023/03/05 08:47:37;;;;;;;25.13;10.83;;;;;;;4.04;87.96;98181.22;5031360;28;20211;-79
2023/03/05 08:50:05;;;;;;;22.90;9.80;;;;;;;4.03;88.35;98178.69;5029823;28;20212;-78
2023/03/05 08:52:31;;;;;;;17.87;8.63;;;;;;;4.05;88.52;98175.09;5032459;28;20209;-78
2023/03/05 08:54:58;;;;;;;23.40;9.63;;;;;;;4.08;88.25;98176.72;5032068;28;20231;-78
2023/03/05 08:57:26;;;;;;;23.07;10.23;;;;;;;4.17;88.35;98171.09;5031890;28;20219;-78
2023/03/05 08:59:52;;;;;;;19.73;9.93;;;;;;;4.09;87.00;98160.97;5031815;28;20621;-78
2023/03/05 09:02:19;;;;;;;20.20;9.13;;;;;;;4.19;86.33;98164.91;5032196;28;20233;-79
2023/03/05 09:04:45;;;;;;;23.27;10.90;;;;;;;4.17;85.82;98163.25;5031946;28;20235;-77
2023/03/05 09:07:12;;;;;;;23.47;10.67;;;;;;;4.18;85.83;98171.03;5031199;28;20216;-81
2023/03/05 09:09:39;;;;;;;19.57;9.40;;;;;;;4.26;85.75;98170.69;5030294;28;20938;-84
2023/03/05 09:12:06;;;;;;;23.30;9.83;;;;;;;4.31;86.79;98173.97;5031231;28;20230;-81
2023/03/05 09:14:33;;;;;;;22.90;10.33;;;;;;;4.41;86.49;98170.03;5031495;28;20240;-82
2023/03/05 09:17:02;;;;;;;20.30;9.27;;;;;;;4.49;85.98;98160.94;5031037;28;20205;-85
2023/03/05 09:19:28;;;;;;;18.33;9.33;;;;;;;4.61;86.22;98157.75;5021792;28;20212;-78
2023/03/05 09:21:55;;;;;;;18.63;10.37;;;;;;;4.64;83.68;98147.13;5030872;28;20248;-81
2023/03/05 09:24:21;;;;;;;24.00;10.03;;;;;;;4.77;82.65;98143.03;5031148;28;20352;-85
2023/03/05 09:26:48;;;;;;;19.90;10.03;;;;;;;4.80;81.57;98135.06;5030803;28;20213;-83
2023/03/05 09:29:14;;;;;;;17.87;10.30;;;;;;;4.78;81.62;98142.16;5030798;28;20682;-83
2023/03/05 09:31:42;;;;;;;24.90;11.70;;;;;;;4.79;81.65;98137.75;5030847;28;20216;-81
2023/03/05 09:34:11;;;;;;;19.93;10.50;;;;;;;4.77;81.41;98136.97;5030793;28;20204;-84
2023/03/05 09:36:37;;;;;;;21.87;10.37;;;;;;;4.77;81.12;98131.75;5030482;28;20208;-82
2023/03/05 09:39:05;;;;;;;23.10;10.03;;;;;;;4.86;81.33;98126.91;5029296;28;20208;-82
2023/03/05 09:41:54;;;;;;;18.97;10.30;;;;;;;4.92;80.18;98121.41;5030356;28;20239;-79
2023/03/05 09:44:29;;;;;;;22.03;11.20;;;;;;;4.96;79.79;98125.56;5028255;28;20231;-76
2023/03/05 09:47:16;;;;;;;20.70;11.27;;;;;;;5.00;80.33;98121.88;5030845;28;20213;-82
2023/03/05 09:49:50;;;;;;;23.33;11.10;;;;;;;5.07;79.89;98111.97;5031167;28;20627;-84
2023/03/05 09:52:21;;;;;;;22.70;11.40;;;;;;;5.06;79.98;98113.72;5031581;28;20209;-84
2023/03/05 09:54:53;;;;;;;24.43;11.53;;;;;;;4.98;79.44;98113.25;5031003;28;20321;-83
2023/03/05 09:57:24;;;;;;;21.40;11.00;;;;;;;4.97;79.12;98108.94;5031101;28;20589;-84
2023/03/05 09:59:55;;;;;;;21.60;10.63;;;;;;;4.93;79.42;98106.50;5031140;28;20231;-84
2023/03/05 10:02:28;;;;;;;20.33;9.90;;;;;;;4.88;79.76;98109.34;5030657;28;20573;-84
2023/03/05 10:05:00;;;;;;;24.33;10.47;;;;;;;4.87;79.87;98112.91;5031412;28;20233;-84
2023/03/05 10:07:31;;;;;;;26.93;11.10;;;;;;;4.72;79.44;98108.41;5030892;28;20220;-84
2023/03/05 10:10:00;;;;;;;21.17;11.07;;;;;;;4.62;80.79;98114.97;5031372;28;20229;-83
2023/03/05 10:12:41;;;;;;;21.80;10.60;;;;;;;4.57;81.14;98114.31;5030977;28;20688;-81
2023/03/05 10:15:12;;;;;;;21.13;10.47;;;;;;;4.65;81.33;98111.34;5031140;28;20749;-82
2023/03/05 10:17:50;;;;;;;22.83;10.20;;;;;;;4.71;81.92;98125.00;5030856;28;20210;-82
2023/03/05 10:20:35;;;;;;;16.80;10.27;;;;;;;4.78;82.30;98112.47;5029638;28;20217;-82
2023/03/05 10:23:23;;;;;;;23.90;11.30;;;;;;;4.82;80.99;98109.66;5029651;28;20229;-82
2023/03/05 10:25:58;;;;;;;21.03;11.40;;;;;;;4.84;80.43;98102.56;5030479;28;20226;-82
2023/03/05 10:28:33;;;;;;;22.77;11.07;;;;;;;4.81;80.16;98101.84;5027538;28;20567;-82
2023/03/05 10:31:12;;;;;;;20.33;10.83;;;;;;;4.75;79.92;98102.13;5016934;28;20209;-82
2023/03/05 10:33:49;;;;;;;22.83;10.70;;;;;;;4.84;80.82;98099.09;5010617;28;20694;-81
2023/03/05 10:36:44;;;;;;;21.27;11.20;;;;;;;4.99;79.68;98096.63;5010773;28;20247;-81
2023/03/05 10:39:51;;;;;;;23.07;11.70;;;;;;;4.97;79.02;98088.00;5011470;28;20205;-81
2023/03/05 10:42:27;;;;;;;23.97;11.83;;;;;;;4.88;79.04;98088.41;5011887;28;20687;-87
2023/03/05 10:44:56;;;;;;;19.97;10.60;;;;;;;4.89;79.68;98089.28;5012857;28;20236;-88
2023/03/05 10:47:28;;;;;;;21.95;13.25;;;;;;;4.90;79.01;98081.31;5010405;28;20443;-87
2023/03/05 10:49:57;;;;;;;20.93;11.53;;;;;;;4.88;80.14;98088.41;5009149;28;20205;-86
2023/03/05 10:52:30;;;;;;;21.57;12.13;;;;;;;4.80;80.16;98084.44;5011438;28;20217;-89
2023/03/05 10:54:57;;;;;;;23.27;11.37;;;;;;;4.94;80.54;98082.88;5011578;28;20234;-91
2023/03/05 10:57:26;;;;;;;21.95;12.82;;;;;;;4.98;79.77;98073.97;5010921;28;20443;-85
2023/03/05 10:59:54;;;;;;;20.77;12.20;;;;;;;5.00;79.69;98073.91;5011468;28;20216;-85
2023/03/05 11:02:22;;;;;;;21.37;12.00;;;;;;;4.89;79.54;98066.53;5011259;28;20213;-86
2023/03/05 11:04:51;;;;;;;25.17;11.37;;;;;;;5.04;79.57;98068.44;5011422;28;20241;-82
2023/03/05 11:07:37;;;;;;;23.17;12.00;;;;;;;5.01;79.63;98059.88;5011897;28;20304;-89
2023/03/05 11:10:15;;;;;;;24.13;12.43;;;;;;;4.94;80.00;98061.09;5014431;28;20213;-87
2023/03/05 11:12:43;;;;;;;22.87;12.17;;;;;;;5.06;79.28;98055.28;5013960;28;20213;-86
2023/03/05 11:15:26;;;;;;;26.33;12.43;;;;;;;4.95;79.89;98058.38;5013387;28;20314;-87
2023/03/05 11:18:22;;;;;;;22.23;11.63;;;;;;;4.91;79.68;98051.63;5013891;28;20265;-86
2023/03/05 11:20:49;;;;;;;21.27;11.60;;;;;;;5.01;80.04;98047.63;4990681;28;20222;-87
2023/03/05 11:23:19;;;;;;;22.20;11.50;;;;;;;4.98;79.69;98041.69;5018526;28;20221;-86
2023/03/05 11:25:56;;;;;;;22.57;12.27;;;;;;;4.99;79.04;98033.75;5034683;28;20239;-85
2023/03/05 11:28:26;;;;;;;21.83;11.10;;;;;;;4.98;79.06;98037.31;5034284;28;20214;-85
2023/03/05 11:30:59;;;;;;;18.80;10.30;;;;;;;5.10;78.26;98031.47;5034541;28;20679;-88
2023/03/05 11:33:26;;;;;;;18.30;11.60;;;;;;;5.16;77.75;98027.69;5034469;28;20215;-84
2023/03/05 11:36:09;;;;;;;20.43;10.70;;;;;;;5.22;77.76;98030.88;5034125;28;20235;-87